Time;durP1;ratioP1;P1;durP2;ratioP2;P2;SDS_P1;SDS_P2;PMS_P1;PMS_P2;Temp;Humidity;BMP_temperature;BMP_pressure;BME280_temperature;BME280_humidity;BME280_pressure;Samples;Min_cycle;Max_cycle;Signal;HPM_P1;HPM_P2
2021/04/05 00:03:40;;;;;;;81.00;22.70;;;1.00;99.90;;;;;;8298431;28;20540;-66
2021/04/05 00:07:42;;;;;;;80.30;22.65;;;1.00;99.90;;;;;;8299625;28;20029;-66
2021/04/05 00:11:42;;;;;;;80.55;22.67;;;0.90;99.90;;;;;;8299402;28;20104;-68
2021/04/05 00:15:43;;;;;;;79.30;22.10;;;1.00;99.90;;;;;;8299040;28;20029;-66
2021/04/05 00:19:44;;;;;;;80.72;22.35;;;1.00;99.90;;;;;;8299092;28;20101;-66
2021/04/05 00:23:45;;;;;;;80.70;22.35;;;0.80;99.90;;;;;;8298829;28;20037;-67
2021/04/05 00:27:45;;;;;;;81.30;22.55;;;0.90;99.90;;;;;;8303533;28;20034;-66
2021/04/05 00:31:46;;;;;;;81.35;22.48;;;0.90;99.90;;;;;;8331720;28;20045;-66
2021/04/05 00:35:47;;;;;;;80.28;22.23;;;0.70;99.90;;;;;;8330129;28;20032;-66
2021/04/05 00:39:47;;;;;;;81.05;22.70;;;0.70;99.90;;;;;;8329771;28;20063;-66
2021/04/05 00:43:48;;;;;;;80.90;22.45;;;0.60;99.90;;;;;;8330611;28;20021;-66
2021/04/05 00:47:51;;;;;;;80.05;22.30;;;0.70;99.90;;;;;;8331205;28;20053;-66
2021/04/05 00:51:52;;;;;;;80.50;22.48;;;0.80;99.90;;;;;;8330628;28;20038;-66
2021/04/05 00:55:53;;;;;;;81.40;22.27;;;0.80;99.90;;;;;;8330392;28;20048;-66
2021/04/05 00:59:53;;;;;;;80.65;22.27;;;0.70;99.90;;;;;;8330599;28;20545;-66
2021/04/05 01:03:55;;;;;;;81.45;22.90;;;0.80;99.90;;;;;;8329612;28;20480;-66
2021/04/05 01:07:56;;;;;;;80.93;22.50;;;0.60;99.90;;;;;;8329251;28;20021;-66
2021/04/05 01:11:57;;;;;;;80.80;22.52;;;0.70;99.90;;;;;;8329869;28;20036;-66
2021/04/05 01:15:57;;;;;;;81.13;22.55;;;0.70;99.90;;;;;;8330047;28;20052;-66
2021/04/05 01:19:58;;;;;;;80.18;22.45;;;0.70;99.90;;;;;;8328523;28;20512;-66
2021/04/05 01:23:58;;;;;;;80.68;22.38;;;0.90;99.90;;;;;;8329596;28;20037;-66
2021/04/05 01:27:59;;;;;;;81.20;22.48;;;0.90;99.90;;;;;;8321865;28;20737;-66
2021/04/05 01:32:00;;;;;;;81.05;22.63;;;0.50;99.90;;;;;;8296840;28;20037;-65
2021/04/05 01:36:07;;;;;;;81.18;22.58;;;0.40;99.90;;;;;;8296397;28;20044;-66
2021/04/05 01:40:08;;;;;;;80.88;22.38;;;0.50;99.90;;;;;;8296775;28;20108;-66
2021/04/05 01:44:09;;;;;;;81.38;22.55;;;0.40;99.90;;;;;;8296161;28;20030;-66
2021/04/05 01:48:11;;;;;;;81.55;22.48;;;0.50;99.90;;;;;;8296144;28;20022;-66
2021/04/05 01:52:15;;;;;;;81.78;22.67;;;0.60;99.90;;;;;;8295010;28;20527;-66
2021/04/05 01:56:17;;;;;;;80.90;22.35;;;0.40;99.90;;;;;;8295931;28;20542;-66
2021/04/05 02:00:25;;;;;;;81.25;22.65;;;0.40;99.90;;;;;;8320813;28;20033;-66
2021/04/05 02:04:26;;;;;;;81.72;22.45;;;0.60;99.90;;;;;;8326434;28;20311;-66
2021/04/05 02:08:28;;;;;;;82.18;22.77;;;0.60;99.90;;;;;;8328385;28;20033;-66
2021/04/05 02:12:29;;;;;;;81.22;22.52;;;0.40;99.90;;;;;;8328094;28;20025;-66
2021/04/05 02:16:30;;;;;;;81.93;22.45;;;0.50;99.90;;;;;;8328170;28;20540;-65
2021/04/05 02:20:31;;;;;;;76.63;21.80;;;0.50;99.90;;;;;;8327587;28;20036;-66
2021/04/05 02:24:33;;;;;;;79.88;22.33;;;0.60;99.90;;;;;;8304242;28;20100;-66
2021/04/05 02:28:42;;;;;;;82.95;22.45;;;0.50;99.90;;;;;;8315709;28;20030;-66
2021/04/05 02:32:43;;;;;;;83.07;22.90;;;0.80;99.90;;;;;;8302347;28;20022;-66
2021/04/05 02:36:43;;;;;;;84.95;22.88;;;1.00;99.90;;;;;;8320985;28;20060;-66
2021/04/05 02:40:44;;;;;;;85.28;22.60;;;0.80;99.90;;;;;;8327686;28;20100;-66
2021/04/05 02:44:45;;;;;;;85.60;22.67;;;0.60;99.90;;;;;;8326198;28;20037;-66
2021/04/05 02:48:48;;;;;;;86.28;22.80;;;0.70;99.90;;;;;;8318523;28;20019;-66
2021/04/05 02:52:49;;;;;;;86.72;23.30;;;0.60;99.90;;;;;;8311774;28;20484;-66
2021/04/05 02:56:51;;;;;;;85.15;22.17;;;0.70;99.90;;;;;;8310451;28;20475;-66
2021/04/05 03:00:52;;;;;;;87.95;23.75;;;0.70;99.90;;;;;;8309602;28;20034;-66
2021/04/05 03:04:53;;;;;;;86.90;23.08;;;0.70;99.90;;;;;;8315304;28;20033;-66
2021/04/05 03:08:54;;;;;;;85.35;23.02;;;0.70;99.90;;;;;;8325719;28;20025;-66
2021/04/05 03:12:58;;;;;;;85.07;22.70;;;0.50;99.90;;;;;;8326168;28;20113;-66
2021/04/05 03:16:59;;;;;;;84.57;22.73;;;0.40;99.90;;;;;;8325704;28;20556;-66
2021/04/05 03:21:07;;;;;;;85.13;23.17;;;0.40;99.90;;;;;;8326788;28;20033;-66
2021/04/05 03:25:17;;;;;;;85.78;22.80;;;0.60;99.90;;;;;;8326806;28;20264;-66
2021/04/05 03:29:19;;;;;;;82.80;22.55;;;0.40;99.90;;;;;;8325479;28;20025;-66
2021/04/05 03:33:47;;;;;;;84.05;22.67;;;0.20;99.90;;;;;;8326376;28;20033;-66
2021/04/05 03:37:48;;;;;;;83.97;22.52;;;0.10;99.90;;;;;;8332911;28;20101;-66
2021/04/05 03:42:14;;;;;;;85.97;23.05;;;0.40;99.90;;;;;;8333133;28;20037;-66
2021/04/05 03:46:22;;;;;;;88.30;23.17;;;0.50;99.90;;;;;;8333136;28;20030;-66
2021/04/05 03:50:30;;;;;;;85.88;22.90;;;0.70;99.90;;;;;;8331446;28;20037;-67
2021/04/05 03:54:39;;;;;;;81.72;22.42;;;1.20;99.90;;;;;;8332737;28;20045;-66
2021/04/05 03:58:43;;;;;;;82.10;22.45;;;1.80;99.90;;;;;;8318289;28;20026;-66
2021/04/05 04:02:53;;;;;;;85.53;22.95;;;2.40;99.90;;;;;;8320751;28;20025;-66
2021/04/05 04:11:10;;;;;;;86.03;23.23;;;2.50;99.90;;;;;;8332844;28;19905;-66
2021/04/05 04:15:13;;;;;;;84.80;22.67;;;2.50;99.90;;;;;;8332002;28;20038;-66
2021/04/05 04:19:14;;;;;;;82.55;22.77;;;2.80;99.90;;;;;;8332186;28;20044;-66
2021/04/05 04:23:15;;;;;;;78.22;22.70;;;3.00;99.90;;;;;;8331648;28;20037;-66
2021/04/05 04:27:16;;;;;;;73.13;22.00;;;3.30;99.90;;;;;;8331818;28;20087;-66
2021/04/05 04:31:20;;;;;;;73.07;21.73;;;3.40;99.90;;;;;;8331752;28;20026;-66
2021/04/05 04:35:20;;;;;;;72.47;21.77;;;3.40;99.90;;;;;;8331469;28;20029;-66
2021/04/05 04:39:21;;;;;;;71.30;21.60;;;3.50;99.90;;;;;;8331383;28;20025;-66
2021/04/05 04:43:22;;;;;;;70.65;21.77;;;3.60;99.90;;;;;;8331208;28;20025;-66
2021/04/05 04:47:22;;;;;;;70.03;21.33;;;3.60;99.90;;;;;;8330578;28;20034;-66
2021/04/05 04:51:23;;;;;;;70.88;22.05;;;3.70;99.90;;;;;;8330808;28;20037;-66
2021/04/05 04:55:25;;;;;;;70.25;21.75;;;3.70;99.90;;;;;;8330848;28;20033;-65
2021/04/05 04:59:26;;;;;;;70.90;22.00;;;3.40;99.90;;;;;;8310247;28;20030;-66
2021/04/05 05:03:28;;;;;;;69.68;21.17;;;3.60;99.90;;;;;;8297941;28;20037;-66
2021/04/05 05:07:32;;;;;;;70.03;21.65;;;3.60;99.90;;;;;;8296604;28;20072;-66
2021/04/05 05:11:33;;;;;;;69.45;21.33;;;3.50;99.90;;;;;;8296388;28;20381;-66
2021/04/05 05:15:35;;;;;;;68.35;21.20;;;3.60;99.90;;;;;;8297428;28;20038;-66
2021/04/05 05:19:39;;;;;;;68.10;21.20;;;3.90;99.90;;;;;;8297472;28;20034;-65
2021/04/05 05:23:41;;;;;;;68.07;21.60;;;4.00;99.90;;;;;;8297170;28;20059;-66
2021/04/05 05:27:46;;;;;;;68.20;21.40;;;4.20;99.90;;;;;;8302633;28;20496;-66
2021/04/05 05:31:47;;;;;;;69.00;21.50;;;4.20;99.90;;;;;;8330085;28;20022;-65
2021/04/05 05:35:51;;;;;;;70.18;22.00;;;4.30;99.90;;;;;;8329579;28;20399;-65
2021/04/05 05:39:52;;;;;;;69.80;21.85;;;4.30;99.90;;;;;;8325266;28;20030;-66
2021/04/05 05:44:03;;;;;;;69.93;21.77;;;4.30;99.90;;;;;;8295125;28;20153;-66
2021/04/05 05:48:08;;;;;;;70.05;21.95;;;4.50;99.90;;;;;;8295457;28;20021;-65
2021/04/05 05:52:30;;;;;;;72.55;22.50;;;4.90;99.90;;;;;;8307827;28;20735;-65
2021/04/05 05:56:54;;;;;;;68.30;21.67;;;5.20;99.90;;;;;;8312458;28;20033;-65
2021/04/05 06:01:09;;;;;;;67.82;22.85;;;5.60;99.90;;;;;;8310381;28;20034;-65
2021/04/05 06:05:29;;;;;;;68.55;22.35;;;5.80;99.90;;;;;;8305786;28;20029;-66
2021/04/05 06:10:02;;;;;;;69.65;22.75;;;5.80;99.90;;;;;;8307464;28;20092;-65
2021/04/05 06:14:30;;;;;;;69.50;22.55;;;5.90;99.90;;;;;;8311817;28;20393;-65
2021/04/05 06:18:53;;;;;;;68.70;22.15;;;6.10;99.90;;;;;;8307253;28;20026;-65
2021/04/05 06:23:20;;;;;;;67.32;22.27;;;6.40;99.90;;;;;;8307234;28;20510;-64
2021/04/05 06:27:27;;;;;;;66.78;22.00;;;6.50;99.90;;;;;;8302050;28;20046;-67
2021/04/05 06:32:08;;;;;;;65.97;22.10;;;6.70;99.90;;;;;;8309876;28;20593;-67
2021/04/05 06:36:27;;;;;;;64.60;22.10;;;6.80;99.90;;;;;;8314370;28;20042;-65
2021/04/05 06:40:32;;;;;;;67.47;22.08;;;6.90;99.90;;;;;;8305223;28;20049;-64
2021/04/05 06:44:32;;;;;;;69.35;22.65;;;6.80;99.90;;;;;;8296961;28;20439;-65
2021/04/05 06:49:01;;;;;;;70.10;22.55;;;6.80;99.90;;;;;;8300555;28;20047;-63
2021/04/05 06:53:29;;;;;;;70.88;22.67;;;7.10;99.90;;;;;;8305416;28;20104;-65
2021/04/05 06:57:46;;;;;;;71.80;22.40;;;7.30;99.90;;;;;;8310365;28;20101;-66
2021/04/05 07:02:06;;;;;;;71.28;23.25;;;7.70;99.90;;;;;;8312998;28;20034;-65
2021/04/05 07:06:20;;;;;;;71.43;23.02;;;8.00;99.90;;;;;;8309414;28;20041;-65
2021/04/05 07:10:27;;;;;;;71.97;22.75;;;8.00;99.90;;;;;;8318333;28;20065;-66
2021/04/05 07:15:04;;;;;;;72.22;23.15;;;8.20;99.90;;;;;;8309717;28;20440;-65
2021/04/05 07:19:28;;;;;;;71.70;22.95;;;8.30;99.90;;;;;;8304333;28;20392;-66
2021/04/05 07:24:03;;;;;;;73.00;22.85;;;8.40;99.90;;;;;;8309766;28;20026;-65
2021/04/05 07:28:07;;;;;;;73.18;23.05;;;8.60;99.90;;;;;;8307386;28;20026;-66
2021/04/05 07:32:32;;;;;;;72.32;23.00;;;9.10;99.90;;;;;;8314634;28;20022;-66
2021/04/05 07:36:45;;;;;;;73.57;23.23;;;9.20;99.90;;;;;;8308375;28;20029;-65
2021/04/05 07:41:10;;;;;;;74.20;24.98;;;9.30;99.90;;;;;;8292315;28;20855;-66
2021/04/05 07:45:20;;;;;;;73.53;25.25;;;9.10;99.90;;;;;;8293586;28;20091;-68
2021/04/05 07:49:27;;;;;;;65.82;22.10;;;9.00;99.90;;;;;;8307758;28;20160;-66
2021/04/05 07:53:39;;;;;;;68.82;22.55;;;9.10;99.90;;;;;;8307804;28;20496;-66
2021/04/05 07:58:00;;;;;;;69.78;22.52;;;9.30;99.90;;;;;;8307917;28;20066;-66
2021/04/05 08:02:38;;;;;;;66.07;22.20;;;9.20;99.90;;;;;;8305443;28;20500;-66
2021/04/05 08:06:50;;;;;;;68.07;22.63;;;8.90;99.90;;;;;;8302379;28;20110;-66
2021/04/05 08:11:11;;;;;;;69.80;23.00;;;9.00;99.90;;;;;;8306204;28;20036;-66
2021/04/05 08:15:26;;;;;;;69.97;22.80;;;9.10;99.90;;;;;;8301814;28;20052;-66
2021/04/05 08:20:11;;;;;;;70.85;22.88;;;8.90;99.90;;;;;;8308845;28;20511;-66
2021/04/05 08:24:32;;;;;;;71.30;22.73;;;8.90;99.90;;;;;;8245906;28;20429;-67
2021/04/05 08:28:46;;;;;;;;;;;9.10;99.90;;;;;;8280765;28;20045;-66
2021/04/05 08:33:17;;;;;;;72.15;23.02;;;9.30;99.90;;;;;;8319749;28;20371;-65
2021/04/05 08:37:34;;;;;;;73.07;23.17;;;9.30;99.90;;;;;;8322087;28;20032;-65
2021/04/05 08:41:40;;;;;;;74.32;23.52;;;9.40;99.90;;;;;;8307259;28;20120;-65
2021/04/05 08:45:49;;;;;;;73.85;23.63;;;9.80;99.90;;;;;;8320366;28;20032;-66
2021/04/05 08:49:51;;;;;;;74.50;23.55;;;10.00;99.90;;;;;;8310928;28;20025;-65
2021/04/05 08:53:56;;;;;;;74.15;23.55;;;10.10;98.80;;;;;;8304156;28;20032;-65
2021/04/05 08:58:06;;;;;;;73.55;22.95;;;10.00;98.70;;;;;;8323533;28;20055;-65
2021/04/05 09:02:26;;;;;;;74.78;23.77;;;10.00;99.00;;;;;;8307069;28;20450;-66
2021/04/05 09:06:42;;;;;;;75.03;23.48;;;10.10;98.20;;;;;;8312832;28;20113;-66
2021/04/05 09:10:51;;;;;;;77.07;23.52;;;10.40;97.50;;;;;;8308688;28;20479;-65
2021/04/05 09:15:22;;;;;;;76.63;23.50;;;10.90;97.40;;;;;;8305623;28;20424;-66
2021/04/05 09:20:03;;;;;;;76.63;23.92;;;11.00;95.00;;;;;;8309725;28;20029;-66
2021/04/05 09:24:25;;;;;;;76.82;23.60;;;11.00;94.50;;;;;;8314470;28;20029;-66
2021/04/05 09:28:45;;;;;;;78.00;23.73;;;11.10;94.50;;;;;;8311242;28;20038;-66
2021/04/05 09:33:01;;;;;;;79.30;25.08;;;11.30;93.70;;;;;;8308906;28;20030;-66
2021/04/05 09:37:39;;;;;;;79.93;23.92;;;11.50;93.90;;;;;;8326764;28;20033;-66
2021/04/05 09:42:07;;;;;;;80.00;24.10;;;11.90;92.40;;;;;;8320963;28;20054;-65
2021/04/05 09:46:26;;;;;;;80.45;23.88;;;12.00;91.00;;;;;;8327716;28;20100;-65
2021/04/05 09:51:04;;;;;;;80.97;24.27;;;12.20;91.80;;;;;;8310969;28;20034;-66
2021/04/05 09:55:10;;;;;;;81.38;24.50;;;12.50;89.70;;;;;;8315698;28;20025;-65
2021/04/05 09:59:16;;;;;;;81.07;23.77;;;12.40;89.60;;;;;;8310112;28;20127;-66
2021/04/05 10:03:18;;;;;;;82.45;24.52;;;12.60;87.50;;;;;;8305133;28;20057;-64
2021/04/05 10:07:19;;;;;;;82.43;24.35;;;12.90;85.30;;;;;;8316511;28;20503;-66
2021/04/05 10:11:22;;;;;;;81.35;24.13;;;13.00;84.40;;;;;;8303804;28;20056;-66
2021/04/05 10:15:26;;;;;;;81.95;24.02;;;13.00;83.60;;;;;;8302887;28;20045;-65
2021/04/05 10:19:36;;;;;;;84.18;24.77;;;13.20;82.50;;;;;;8309526;28;20036;-65
2021/04/05 10:23:37;;;;;;;86.90;25.27;;;13.40;82.70;;;;;;8307513;28;20068;-65
2021/04/05 10:27:38;;;;;;;85.57;25.80;;;13.60;83.80;;;;;;8311476;28;20364;-66
2021/04/05 10:31:41;;;;;;;84.50;24.35;;;13.70;78.90;;;;;;8309024;28;20052;-65
2021/04/05 10:35:55;;;;;;;81.90;23.83;;;13.70;78.00;;;;;;8309493;28;20411;-64
2021/04/05 10:39:56;;;;;;;84.45;24.73;;;13.30;77.90;;;;;;8308289;28;20033;-65
2021/04/05 10:44:09;;;;;;;83.90;24.92;;;13.80;80.00;;;;;;8307537;28;20391;-65
2021/04/05 10:48:21;;;;;;;83.72;24.25;;;13.80;75.20;;;;;;8323911;28;20025;-65
2021/04/05 10:52:27;;;;;;;87.45;26.23;;;14.00;75.00;;;;;;8304603;28;20029;-65
2021/04/05 10:56:32;;;;;;;84.63;24.60;;;14.50;72.90;;;;;;8305615;28;20040;-65
2021/04/05 11:00:38;;;;;;;81.18;24.10;;;14.40;71.80;;;;;;8307308;28;20029;-66
2021/04/05 11:04:40;;;;;;;83.68;24.35;;;14.10;69.70;;;;;;8317403;28;20063;-65
2021/04/05 11:08:43;;;;;;;87.22;25.60;;;14.60;68.60;;;;;;8311862;28;20056;-66
2021/04/05 11:12:45;;;;;;;88.40;25.10;;;15.70;66.50;;;;;;8304746;28;20052;-67
2021/04/05 11:16:52;;;;;;;88.95;25.73;;;16.10;65.00;;;;;;8305640;28;20109;-66
2021/04/05 11:20:57;;;;;;;88.80;25.80;;;16.30;63.40;;;;;;8319569;28;20005;-64
2021/04/05 11:25:05;;;;;;;86.28;24.65;;;16.10;64.70;;;;;;8310627;28;20029;-65
2021/04/05 11:29:10;;;;;;;83.00;24.05;;;15.90;65.40;;;;;;8311955;28;20559;-65
2021/04/05 11:33:12;;;;;;;87.75;25.15;;;15.80;63.60;;;;;;8306492;28;20033;-65
2021/04/05 11:37:15;;;;;;;94.95;30.70;;;16.30;62.90;;;;;;8300909;28;20045;-65
2021/04/05 11:41:24;;;;;;;70.72;22.95;;;16.70;60.90;;;;;;8311017;28;20037;-65
2021/04/05 11:45:42;;;;;;;72.68;22.60;;;15.50;62.60;;;;;;8308865;28;20029;-65
2021/04/05 11:49:43;;;;;;;70.38;22.50;;;15.60;63.60;;;;;;8307562;28;20075;-65
2021/04/05 11:54:35;;;;;;;73.15;24.50;;;15.20;63.30;;;;;;8305693;28;20034;-66
2021/04/05 11:58:41;;;;;;;81.10;30.70;;;14.80;64.70;;;;;;8294562;28;20096;-65
2021/04/05 12:03:06;;;;;;;76.25;24.13;;;15.30;64.50;;;;;;8308676;28;20029;-64
2021/04/05 12:07:13;;;;;;;72.88;23.02;;;15.00;64.60;;;;;;8314158;28;20069;-65
2021/04/05 12:11:15;;;;;;;71.85;22.45;;;14.50;64.50;;;;;;8305794;28;20549;-65
2021/04/05 12:15:19;;;;;;;72.25;23.23;;;13.90;66.00;;;;;;8313679;28;20548;-65
2021/04/05 12:19:42;;;;;;;72.63;23.02;;;13.60;66.90;;;;;;8306275;28;20444;-66
2021/04/05 12:23:52;;;;;;;73.63;23.70;;;13.40;68.80;;;;;;8311298;28;20485;-65
2021/04/05 12:27:58;;;;;;;72.15;22.92;;;13.10;70.40;;;;;;8313221;28;20022;-65
2021/04/05 12:32:02;;;;;;;72.72;23.52;;;13.10;69.70;;;;;;8311462;28;20087;-65
2021/04/05 12:36:04;;;;;;;75.13;23.77;;;12.90;69.40;;;;;;8311294;28;20502;-65
2021/04/05 12:40:06;;;;;;;75.60;23.75;;;13.30;71.00;;;;;;8316473;28;20085;-65
2021/04/05 12:44:11;;;;;;;75.53;23.55;;;13.30;69.80;;;;;;8312689;28;20488;-65
2021/04/05 12:48:13;;;;;;;77.13;23.75;;;13.10;68.60;;;;;;8304761;28;20025;-65
2021/04/05 12:52:26;;;;;;;78.28;24.10;;;13.00;67.80;;;;;;8330186;28;20038;-65
2021/04/05 12:56:27;;;;;;;78.25;24.27;;;13.20;70.70;;;;;;8327538;28;20033;-65
2021/04/05 13:00:28;;;;;;;77.65;23.88;;;13.20;65.80;;;;;;8327519;28;20064;-65
2021/04/05 13:04:30;;;;;;;77.63;23.85;;;13.00;65.30;;;;;;8317681;28;20029;-65
2021/04/05 13:08:50;;;;;;;83.63;24.83;;;13.10;64.10;;;;;;8327294;28;20572;-65
2021/04/05 13:12:55;;;;;;;81.70;24.52;;;12.90;63.80;;;;;;8330016;28;20072;-65
2021/04/05 13:17:07;;;;;;;79.63;24.35;;;12.80;64.40;;;;;;8324708;28;20108;-65
2021/04/05 13:21:08;;;;;;;79.85;24.35;;;12.60;63.50;;;;;;8302667;28;20025;-65
2021/04/05 13:25:25;;;;;;;80.47;24.98;;;12.70;64.20;;;;;;8304028;28;20037;-65
2021/04/05 13:29:30;;;;;;;80.88;24.95;;;12.60;63.10;;;;;;8313909;28;20022;-65
2021/04/05 13:33:34;;;;;;;80.80;24.83;;;12.60;62.00;;;;;;8310330;28;20715;-65
2021/04/05 13:37:45;;;;;;;81.15;24.55;;;12.50;62.10;;;;;;8308501;28;20030;-65
2021/04/05 13:41:46;;;;;;;83.13;25.10;;;12.50;62.00;;;;;;8310153;28;20025;-65
2021/04/05 13:45:56;;;;;;;80.57;24.15;;;12.80;62.90;;;;;;8305537;28;20060;-65
2021/04/05 13:49:59;;;;;;;81.25;24.55;;;12.80;63.10;;;;;;8304754;28;20034;-65
2021/04/05 13:54:03;;;;;;;80.88;24.38;;;13.00;62.60;;;;;;8300817;28;20030;-65
2021/04/05 13:58:15;;;;;;;80.75;24.17;;;12.90;62.10;;;;;;8305047;28;20104;-65
2021/04/05 14:02:17;;;;;;;84.47;25.52;;;13.10;64.20;;;;;;8298392;28;20032;-65
2021/04/05 14:06:36;;;;;;;83.80;24.42;;;13.20;63.70;;;;;;8294856;28;20026;-65
2021/04/05 14:10:39;;;;;;;87.18;24.98;;;13.40;64.70;;;;;;8296127;28;20049;-65
2021/04/05 14:14:40;;;;;;;86.22;25.02;;;14.10;62.90;;;;;;8315145;28;20038;-65
2021/04/05 14:18:41;;;;;;;84.03;24.60;;;14.40;62.70;;;;;;8312658;28;20029;-65
2021/04/05 14:22:45;;;;;;;84.65;24.98;;;13.80;61.50;;;;;;8294918;28;20063;-65
2021/04/05 14:26:47;;;;;;;85.60;24.77;;;13.60;63.50;;;;;;8301351;28;20025;-65
2021/04/05 14:30:55;;;;;;;80.75;24.63;;;13.70;65.00;;;;;;8326360;28;20052;-65
2021/04/05 14:34:59;;;;;;;76.05;23.42;;;13.30;61.70;;;;;;8314311;28;20025;-65
2021/04/05 14:39:07;;;;;;;74.20;23.40;;;12.40;63.10;;;;;;8294891;28;20034;-65
2021/04/05 14:43:22;;;;;;;73.30;23.05;;;11.70;66.20;;;;;;8294670;28;20057;-64
2021/04/05 14:47:24;;;;;;;74.45;23.30;;;11.20;67.20;;;;;;8294345;28;20443;-65
2021/04/05 14:51:29;;;;;;;74.47;23.52;;;11.00;67.60;;;;;;8293294;28;20113;-65
2021/04/05 14:55:52;;;;;;;73.53;23.38;;;10.80;69.20;;;;;;8294244;28;20425;-65
2021/04/05 14:59:54;;;;;;;74.50;23.85;;;10.70;71.50;;;;;;8316716;28;20036;-65
2021/04/05 15:04:10;;;;;;;72.88;23.38;;;10.70;70.70;;;;;;8323305;28;20033;-65
2021/04/05 15:08:16;;;;;;;74.38;23.73;;;10.70;70.30;;;;;;8301422;28;20461;-65
2021/04/05 15:12:22;;;;;;;77.15;24.33;;;10.80;71.20;;;;;;8293600;28;20030;-65
2021/04/05 15:16:27;;;;;;;79.75;25.67;;;10.80;69.60;;;;;;8292229;28;20041;-65
2021/04/05 15:20:36;;;;;;;78.53;26.13;;;10.70;70.60;;;;;;8304283;28;20030;-65
2021/04/05 15:24:41;;;;;;;76.60;23.85;;;10.70;71.40;;;;;;8295632;28;20030;-65
2021/04/05 15:28:43;;;;;;;76.55;23.88;;;10.60;71.60;;;;;;8296102;28;20087;-64
2021/04/05 15:32:53;;;;;;;77.35;24.38;;;10.50;70.90;;;;;;8307111;28;20026;-65
2021/04/05 15:36:54;;;;;;;74.90;23.70;;;10.50;72.10;;;;;;8298955;28;20037;-66
2021/04/05 15:40:55;;;;;;;74.95;23.83;;;10.50;70.80;;;;;;8322095;28;20124;-66
2021/04/05 15:45:16;;;;;;;75.43;23.80;;;10.50;71.70;;;;;;8303816;28;20038;-66
2021/04/05 15:49:25;;;;;;;75.63;23.90;;;10.50;72.50;;;;;;8302138;28;20022;-66
2021/04/05 15:53:29;;;;;;;75.85;24.15;;;10.50;73.00;;;;;;8331937;28;20032;-66
2021/04/05 15:57:43;;;;;;;76.55;23.98;;;10.40;74.50;;;;;;8329856;28;20348;-65
2021/04/05 16:01:54;;;;;;;75.10;23.90;;;10.30;76.00;;;;;;8329814;28;20484;-65
2021/04/05 16:06:00;;;;;;;73.75;23.63;;;10.20;77.80;;;;;;8318981;28;20116;-65
2021/04/05 16:10:09;;;;;;;73.57;23.63;;;10.10;79.50;;;;;;8304883;28;20104;-65
2021/04/05 16:14:16;;;;;;;70.53;23.25;;;10.00;82.20;;;;;;8330171;28;20033;-65
2021/04/05 16:18:18;;;;;;;70.28;22.80;;;9.70;88.10;;;;;;8329669;28;20033;-65
2021/04/05 16:22:24;;;;;;;71.65;23.58;;;9.40;90.50;;;;;;8299062;28;20022;-66
2021/04/05 16:26:28;;;;;;;69.10;22.58;;;9.40;91.40;;;;;;8315494;28;20049;-64
2021/04/05 16:30:33;;;;;;;69.90;23.13;;;9.10;93.20;;;;;;8313427;28;20080;-65
2021/04/05 16:34:38;;;;;;;70.28;22.95;;;8.90;95.80;;;;;;8315647;28;20029;-64
2021/04/05 16:38:41;;;;;;;71.45;23.10;;;8.70;98.80;;;;;;8300972;28;20038;-64
2021/04/05 16:43:23;;;;;;;70.13;22.98;;;8.40;99.90;;;;;;8306311;28;20034;-62
2021/04/05 16:47:32;;;;;;;69.88;22.95;;;7.70;99.90;;;;;;8271340;28;20560;-62
2021/04/05 16:51:40;;;;;;;69.55;22.70;;;7.50;99.90;;;;;;8314365;28;20504;-65
2021/04/05 16:55:44;;;;;;;67.47;22.15;;;7.60;99.90;;;;;;8311034;28;20097;-65
2021/04/05 16:59:56;;;;;;;65.57;22.35;;;7.60;99.90;;;;;;8312497;28;20037;-64
2021/04/05 17:04:00;;;;;;;63.60;21.92;;;7.50;99.90;;;;;;8338290;28;20074;-66
2021/04/05 17:08:09;;;;;;;60.10;21.00;;;6.90;99.90;;;;;;8306145;28;20046;-66
2021/04/05 17:12:16;;;;;;;59.97;21.00;;;6.10;99.90;;;;;;8312096;28;20021;-66
2021/04/05 17:16:37;;;;;;;62.40;21.10;;;5.70;99.90;;;;;;8306220;28;20088;-69
2021/04/05 17:20:40;;;;;;;;;;;4.90;99.90;;;;;;8311966;28;20030;-67
2021/04/05 17:24:44;;;;;;;83.20;22.75;;;3.40;99.90;;;;;;8310511;28;19921;-67
2021/04/05 17:28:53;;;;;;;85.97;22.77;;;2.40;99.90;;;;;;8309017;28;20472;-67
2021/04/05 17:32:55;;;;;;;85.55;22.83;;;2.20;99.90;;;;;;8327206;28;20037;-68
2021/04/05 17:37:08;;;;;;;87.82;23.15;;;2.20;99.90;;;;;;8314045;28;20543;-67
2021/04/05 17:41:19;;;;;;;86.43;23.08;;;2.00;99.90;;;;;;8310326;28;20056;-68
2021/04/05 17:45:26;;;;;;;88.30;23.10;;;2.00;99.90;;;;;;8323071;28;20030;-68
2021/04/05 17:49:48;;;;;;;90.88;23.95;;;1.60;99.90;;;;;;8312190;28;20033;-67
2021/04/05 17:54:20;;;;;;;90.05;23.50;;;1.60;99.90;;;;;;8316868;28;20392;-67
2021/04/05 17:58:40;;;;;;;89.32;23.52;;;1.70;99.90;;;;;;8308308;28;20083;-68
2021/04/05 18:02:56;;;;;;;89.85;23.58;;;1.70;99.90;;;;;;8304027;28;20026;-69
2021/04/05 18:07:06;;;;;;;89.38;23.38;;;1.60;99.90;;;;;;8306722;28;20108;-66
2021/04/05 18:11:15;;;;;;;90.28;23.35;;;1.60;99.90;;;;;;8312400;28;20033;-67
2021/04/05 18:15:24;;;;;;;91.70;23.90;;;1.50;99.90;;;;;;8301904;28;20079;-67
2021/04/05 18:20:07;;;;;;;89.93;23.65;;;1.10;99.90;;;;;;8322902;28;20025;-66
2021/04/05 18:24:26;;;;;;;87.28;23.58;;;0.70;99.90;;;;;;8343309;28;20041;-67
2021/04/05 18:28:52;;;;;;;87.00;23.33;;;0.60;99.90;;;;;;8351532;28;20048;-66
2021/04/05 18:32:55;;;;;;;87.03;23.58;;;0.60;99.90;;;;;;8347665;28;20060;-66
2021/04/05 18:37:18;;;;;;;88.55;23.88;;;0.50;99.90;;;;;;8351652;28;20143;-66
2021/04/05 18:41:19;;;;;;;87.78;23.48;;;0.50;99.90;;;;;;8344056;28;20063;-67
2021/04/05 18:45:46;;;;;;;88.38;23.48;;;0.40;99.90;;;;;;8354260;28;20790;-66
2021/04/05 18:50:05;;;;;;;86.93;23.70;;;0.50;99.90;;;;;;8341224;28;20049;-66
2021/04/05 18:54:08;;;;;;;86.50;23.65;;;0.40;99.90;;;;;;8348747;28;20056;-67
2021/04/05 18:58:12;;;;;;;87.53;23.63;;;0.30;99.90;;;;;;8350259;28;20033;-67
2021/04/05 19:02:14;;;;;;;87.95;23.85;;;0.40;99.90;;;;;;8347043;28;20021;-67
2021/04/05 19:06:36;;;;;;;87.63;23.42;;;0.40;99.90;;;;;;8346536;28;20029;-67
2021/04/05 19:10:40;;;;;;;85.53;23.02;;;0.50;99.90;;;;;;8348833;28;20064;-66
2021/04/05 19:15:37;;;;;;;87.78;23.50;;;0.40;99.90;;;;;;8341455;28;21203;-67
2021/04/05 19:19:44;;;;;;;86.53;23.30;;;0.30;99.90;;;;;;8251862;28;20045;-67
2021/04/05 19:24:16;;;;;;;86.30;23.45;;;0.30;99.90;;;;;;8309390;28;20511;-67
2021/04/05 19:28:20;;;;;;;86.70;23.08;;;0.40;99.90;;;;;;8348290;28;20064;-66
2021/04/05 19:32:51;;;;;;;87.78;23.77;;;0.40;99.90;;;;;;8347962;28;20029;-67
2021/04/05 19:37:01;;;;;;;;;;;0.40;99.90;;;;;;8350146;28;20021;-67
2021/04/05 19:41:27;;;;;;;86.53;23.30;;;0.30;99.90;;;;;;8345461;28;20353;-66
2021/04/05 19:45:59;;;;;;;85.90;23.25;;;0.40;99.90;;;;;;8342242;28;20044;-66
2021/04/05 19:50:31;;;;;;;87.55;23.45;;;0.30;99.90;;;;;;8339463;28;20033;-67
2021/04/05 19:54:43;;;;;;;86.32;23.25;;;0.30;99.90;;;;;;8305616;28;20060;-67
2021/04/05 19:59:13;;;;;;;86.47;23.25;;;0.30;99.90;;;;;;8307863;28;20664;-67
2021/04/05 20:03:25;;;;;;;86.90;23.15;;;0.30;99.90;;;;;;8309370;28;20030;-67
2021/04/05 20:07:42;;;;;;;90.38;24.77;;;0.20;99.90;;;;;;8307843;28;20030;-67
2021/04/05 20:12:07;;;;;;;89.18;23.52;;;0.40;99.90;;;;;;8308140;28;20049;-67
2021/04/05 20:16:33;;;;;;;88.10;23.48;;;0.50;99.90;;;;;;8306207;28;20037;-67
2021/04/05 20:20:39;;;;;;;89.93;23.52;;;0.30;99.90;;;;;;8331718;28;20060;-67
2021/04/05 20:25:09;;;;;;;89.93;23.52;;;0.20;99.90;;;;;;8330144;28;20029;-67
2021/04/05 20:29:39;;;;;;;89.25;23.52;;;0.10;99.90;;;;;;8330273;28;20030;-67
2021/04/05 20:34:07;;;;;;;89.95;23.65;;;-0.10;99.90;;;;;;8324251;28;20421;-69
2021/04/05 20:38:15;;;;;;;89.20;23.35;;;-0.10;99.90;;;;;;8312086;28;20053;-67
2021/04/05 20:42:25;;;;;;;87.53;23.20;;;-0.30;99.90;;;;;;8305919;28;20408;-67
2021/04/05 20:46:30;;;;;;;87.60;23.42;;;-0.30;99.90;;;;;;8305896;28;20515;-67
2021/04/05 20:50:35;;;;;;;88.50;23.33;;;-0.10;99.90;;;;;;8316035;28;20076;-67
2021/04/05 20:54:53;;;;;;;88.72;23.33;;;0.00;99.90;;;;;;8314530;28;20025;-67
2021/04/05 20:59:05;;;;;;;88.32;23.08;;;0.00;99.90;;;;;;8313034;28;20029;-67
2021/04/05 21:03:07;;;;;;;90.13;23.75;;;0.10;99.90;;;;;;8302450;28;20026;-67
2021/04/05 21:07:13;;;;;;;90.80;23.13;;;0.00;99.90;;;;;;8311831;28;20029;-67
2021/04/05 21:11:19;;;;;;;90.22;23.20;;;-0.10;99.90;;;;;;8317014;28;20026;-67
2021/04/05 21:15:25;;;;;;;89.47;23.30;;;0.00;99.90;;;;;;8315403;28;20113;-68
2021/04/05 21:19:30;;;;;;;91.43;23.65;;;0.10;99.90;;;;;;8315434;28;20115;-68
2021/04/05 21:23:37;;;;;;;91.68;23.25;;;0.10;99.90;;;;;;8324147;28;20191;-68